Gray Gables, Washington
Current Conditions -  °F | °C
As of 12:39 AM on Saturday 25 Oct 2014 (Local Time) from KHQM Reporting Station
Light Rain Light Rain  
Wind Chill: 51°   Ceiling: 4500
Heat Index: 51°   Visibility: 5mi
Dew Point: 50°   Wind: 17mph
Humidity: 96%   Direction: 50°NE
Pressure: 29.64"   Gusts: NA
Location:  47.0202°N, 123.878°W
Report Text: KHQM 250739Z AUTO 05015KT 5SM -RA BR FEW012 BKN045 OVC055 11/10 A2964 RMK AO2 PRESFR P0005 T01060100
Loading
Personal Weather Stations






























Interactive Weather Map
Tropical Storm Tracking
New forecast layout! Learn more

10-Day Weather Forecast

Advertisements
Track Severe Weather on mobile